sensor_id;sensor_type;location;lat;lon;timestamp;P1;durP1;ratioP1;P2;durP2;ratioP2
64140;SDS011;50436;50.618;7.932;2022-12-07T00:01:18;0.20;;;0.20;;
64140;SDS011;50436;50.618;7.932;2022-12-07T00:04:04;0.20;;;0.20;;
64140;SDS011;50436;50.618;7.932;2022-12-07T00:06:52;0.20;;;0.20;;
64140;SDS011;50436;50.618;7.932;2022-12-07T00:09:38;0.20;;;0.20;;
64140;SDS011;50436;50.618;7.932;2022-12-07T00:12:24;0.20;;;0.20;;
64140;SDS011;50436;50.618;7.932;2022-12-07T00:15:10;0.20;;;0.20;;
64140;SDS011;50436;50.618;7.932;2022-12-07T00:17:55;0.20;;;0.20;;
64140;SDS011;50436;50.618;7.932;2022-12-07T00:20:43;0.20;;;0.20;;
64140;SDS011;50436;50.618;7.932;2022-12-07T00:23:29;0.20;;;0.20;;
64140;SDS011;50436;50.618;7.932;2022-12-07T00:26:20;0.20;;;0.20;;
64140;SDS011;50436;50.618;7.932;2022-12-07T00:29:09;0.20;;;0.20;;
64140;SDS011;50436;50.618;7.932;2022-12-07T00:32:00;0.20;;;0.20;;
64140;SDS011;50436;50.618;7.932;2022-12-07T00:34:46;0.20;;;0.20;;
64140;SDS011;50436;50.618;7.932;2022-12-07T00:37:32;0.20;;;0.20;;
64140;SDS011;50436;50.618;7.932;2022-12-07T00:40:17;0.20;;;0.20;;
64140;SDS011;50436;50.618;7.932;2022-12-07T00:43:03;0.20;;;0.20;;
64140;SDS011;50436;50.618;7.932;2022-12-07T00:45:49;0.20;;;0.20;;
64140;SDS011;50436;50.618;7.932;2022-12-07T00:48:35;0.20;;;0.20;;
64140;SDS011;50436;50.618;7.932;2022-12-07T00:51:22;0.20;;;0.20;;
64140;SDS011;50436;50.618;7.932;2022-12-07T00:54:09;0.20;;;0.20;;
64140;SDS011;50436;50.618;7.932;2022-12-07T00:56:55;0.20;;;0.20;;
64140;SDS011;50436;50.618;7.932;2022-12-07T00:59:41;0.20;;;0.20;;
64140;SDS011;50436;50.618;7.932;2022-12-07T01:02:27;0.20;;;0.20;;
64140;SDS011;50436;50.618;7.932;2022-12-07T01:05:13;0.20;;;0.20;;
64140;SDS011;50436;50.618;7.932;2022-12-07T01:07:58;0.20;;;0.20;;
64140;SDS011;50436;50.618;7.932;2022-12-07T01:10:45;0.20;;;0.20;;
64140;SDS011;50436;50.618;7.932;2022-12-07T01:13:31;0.20;;;0.20;;
64140;SDS011;50436;50.618;7.932;2022-12-07T01:16:19;0.20;;;0.20;;
64140;SDS011;50436;50.618;7.932;2022-12-07T01:19:06;0.20;;;0.20;;
64140;SDS011;50436;50.618;7.932;2022-12-07T01:21:52;0.20;;;0.20;;
64140;SDS011;50436;50.618;7.932;2022-12-07T01:24:40;0.17;;;0.17;;
64140;SDS011;50436;50.618;7.932;2022-12-07T01:27:26;0.30;;;0.30;;
64140;SDS011;50436;50.618;7.932;2022-12-07T01:30:12;0.20;;;0.20;;
64140;SDS011;50436;50.618;7.932;2022-12-07T01:32:58;0.35;;;0.30;;
64140;SDS011;50436;50.618;7.932;2022-12-07T01:35:44;0.32;;;0.30;;
64140;SDS011;50436;50.618;7.932;2022-12-07T01:38:30;1.27;;;0.60;;
64140;SDS011;50436;50.618;7.932;2022-12-07T01:41:17;0.30;;;0.30;;
64140;SDS011;50436;50.618;7.932;2022-12-07T01:44:09;0.35;;;0.30;;
64140;SDS011;50436;50.618;7.932;2022-12-07T01:47:11;0.20;;;0.20;;
64140;SDS011;50436;50.618;7.932;2022-12-07T01:49:57;0.20;;;0.20;;
64140;SDS011;50436;50.618;7.932;2022-12-07T01:52:43;0.20;;;0.20;;
64140;SDS011;50436;50.618;7.932;2022-12-07T01:55:34;0.20;;;0.20;;
64140;SDS011;50436;50.618;7.932;2022-12-07T01:58:24;0.20;;;0.20;;
64140;SDS011;50436;50.618;7.932;2022-12-07T02:01:10;0.20;;;0.20;;
64140;SDS011;50436;50.618;7.932;2022-12-07T02:03:57;0.20;;;0.20;;
64140;SDS011;50436;50.618;7.932;2022-12-07T02:06:43;0.20;;;0.20;;
64140;SDS011;50436;50.618;7.932;2022-12-07T02:09:30;0.20;;;0.20;;
64140;SDS011;50436;50.618;7.932;2022-12-07T02:12:16;0.20;;;0.20;;
64140;SDS011;50436;50.618;7.932;2022-12-07T02:15:02;0.20;;;0.20;;
64140;SDS011;50436;50.618;7.932;2022-12-07T02:27:50;0.80;;;0.40;;
64140;SDS011;50436;50.618;7.932;2022-12-07T02:30:46;0.35;;;0.30;;
64140;SDS011;50436;50.618;7.932;2022-12-07T02:33:36;0.20;;;0.20;;
64140;SDS011;50436;50.618;7.932;2022-12-07T02:36:30;0.25;;;0.25;;
64140;SDS011;50436;50.618;7.932;2022-12-07T02:42:39;1.17;;;0.60;;
64140;SDS011;50436;50.618;7.932;2022-12-07T02:45:29;0.90;;;0.52;;
64140;SDS011;50436;50.618;7.932;2022-12-07T02:48:17;1.95;;;0.98;;
64140;SDS011;50436;50.618;7.932;2022-12-07T02:51:05;1.42;;;0.80;;
64140;SDS011;50436;50.618;7.932;2022-12-07T02:53:51;1.85;;;0.90;;
64140;SDS011;50436;50.618;7.932;2022-12-07T02:57:00;1.75;;;0.90;;
64140;SDS011;50436;50.618;7.932;2022-12-07T03:02:58;0.73;;;0.40;;
64140;SDS011;50436;50.618;7.932;2022-12-07T03:09:20;0.90;;;0.45;;
64140;SDS011;50436;50.618;7.932;2022-12-07T03:12:14;0.25;;;0.20;;
64140;SDS011;50436;50.618;7.932;2022-12-07T03:17:57;0.20;;;0.20;;
64140;SDS011;50436;50.618;7.932;2022-12-07T03:20:46;0.93;;;0.50;;
64140;SDS011;50436;50.618;7.932;2022-12-07T03:23:37;0.55;;;0.40;;
64140;SDS011;50436;50.618;7.932;2022-12-07T03:26:31;0.35;;;0.30;;
64140;SDS011;50436;50.618;7.932;2022-12-07T03:29:25;0.30;;;0.30;;
64140;SDS011;50436;50.618;7.932;2022-12-07T03:32:16;0.20;;;0.20;;
64140;SDS011;50436;50.618;7.932;2022-12-07T03:35:12;0.68;;;0.40;;
64140;SDS011;50436;50.618;7.932;2022-12-07T03:38:10;1.98;;;1.10;;
64140;SDS011;50436;50.618;7.932;2022-12-07T03:41:07;0.38;;;0.30;;
64140;SDS011;50436;50.618;7.932;2022-12-07T03:43:56;1.85;;;0.98;;
64140;SDS011;50436;50.618;7.932;2022-12-07T03:49:51;0.38;;;0.32;;
64140;SDS011;50436;50.618;7.932;2022-12-07T03:52:47;1.95;;;1.10;;
64140;SDS011;50436;50.618;7.932;2022-12-07T03:55:57;2.13;;;1.27;;
64140;SDS011;50436;50.618;7.932;2022-12-07T03:58:44;2.78;;;1.70;;
64140;SDS011;50436;50.618;7.932;2022-12-07T04:01:31;2.92;;;1.90;;
64140;SDS011;50436;50.618;7.932;2022-12-07T04:04:17;1.65;;;1.00;;
64140;SDS011;50436;50.618;7.932;2022-12-07T04:07:03;1.70;;;1.02;;
64140;SDS011;50436;50.618;7.932;2022-12-07T04:09:49;4.85;;;3.63;;
64140;SDS011;50436;50.618;7.932;2022-12-07T04:12:35;4.03;;;2.90;;
64140;SDS011;50436;50.618;7.932;2022-12-07T04:15:21;5.03;;;3.38;;
64140;SDS011;50436;50.618;7.932;2022-12-07T04:18:07;4.18;;;2.85;;
64140;SDS011;50436;50.618;7.932;2022-12-07T04:20:53;2.28;;;1.42;;
64140;SDS011;50436;50.618;7.932;2022-12-07T04:23:39;4.40;;;3.03;;
64140;SDS011;50436;50.618;7.932;2022-12-07T04:26:25;2.83;;;2.05;;
64140;SDS011;50436;50.618;7.932;2022-12-07T04:29:11;2.53;;;1.70;;
64140;SDS011;50436;50.618;7.932;2022-12-07T04:31:57;0.20;;;0.20;;
64140;SDS011;50436;50.618;7.932;2022-12-07T04:34:42;0.20;;;0.20;;
64140;SDS011;50436;50.618;7.932;2022-12-07T04:37:28;0.22;;;0.20;;
64140;SDS011;50436;50.618;7.932;2022-12-07T04:40:14;0.20;;;0.20;;
64140;SDS011;50436;50.618;7.932;2022-12-07T04:43:00;0.20;;;0.20;;
64140;SDS011;50436;50.618;7.932;2022-12-07T04:45:46;0.13;;;0.13;;
64140;SDS011;50436;50.618;7.932;2022-12-07T04:48:33;0.20;;;0.20;;
64140;SDS011;50436;50.618;7.932;2022-12-07T04:51:20;0.20;;;0.20;;
64140;SDS011;50436;50.618;7.932;2022-12-07T04:54:07;0.20;;;0.20;;
64140;SDS011;50436;50.618;7.932;2022-12-07T04:56:53;0.20;;;0.20;;
64140;SDS011;50436;50.618;7.932;2022-12-07T04:59:39;0.10;;;0.10;;
64140;SDS011;50436;50.618;7.932;2022-12-07T05:02:25;0.30;;;0.30;;
64140;SDS011;50436;50.618;7.932;2022-12-07T05:05:11;0.57;;;0.38;;
64140;SDS011;50436;50.618;7.932;2022-12-07T05:07:57;0.70;;;0.47;;
64140;SDS011;50436;50.618;7.932;2022-12-07T05:10:43;1.00;;;0.52;;
64140;SDS011;50436;50.618;7.932;2022-12-07T05:13:29;1.17;;;0.63;;
64140;SDS011;50436;50.618;7.932;2022-12-07T05:16:14;0.98;;;0.55;;
64140;SDS011;50436;50.618;7.932;2022-12-07T05:19:00;1.60;;;1.00;;
64140;SDS011;50436;50.618;7.932;2022-12-07T05:21:46;0.32;;;0.30;;
64140;SDS011;50436;50.618;7.932;2022-12-07T05:24:32;0.43;;;0.30;;
64140;SDS011;50436;50.618;7.932;2022-12-07T05:27:18;0.20;;;0.20;;
64140;SDS011;50436;50.618;7.932;2022-12-07T05:30:04;0.20;;;0.20;;
64140;SDS011;50436;50.618;7.932;2022-12-07T05:32:51;0.20;;;0.20;;
64140;SDS011;50436;50.618;7.932;2022-12-07T05:35:37;0.17;;;0.17;;
64140;SDS011;50436;50.618;7.932;2022-12-07T05:38:23;0.10;;;0.10;;
64140;SDS011;50436;50.618;7.932;2022-12-07T05:41:12;0.13;;;0.13;;
64140;SDS011;50436;50.618;7.932;2022-12-07T05:44:21;0.20;;;0.20;;
64140;SDS011;50436;50.618;7.932;2022-12-07T05:47:06;0.60;;;0.40;;
64140;SDS011;50436;50.618;7.932;2022-12-07T05:49:53;1.00;;;0.52;;
64140;SDS011;50436;50.618;7.932;2022-12-07T05:52:38;1.13;;;0.70;;
64140;SDS011;50436;50.618;7.932;2022-12-07T05:55:27;0.20;;;0.20;;
64140;SDS011;50436;50.618;7.932;2022-12-07T05:58:12;0.20;;;0.20;;
64140;SDS011;50436;50.618;7.932;2022-12-07T06:01:17;0.20;;;0.20;;
64140;SDS011;50436;50.618;7.932;2022-12-07T06:04:03;0.10;;;0.10;;
64140;SDS011;50436;50.618;7.932;2022-12-07T06:06:49;0.20;;;0.20;;
64140;SDS011;50436;50.618;7.932;2022-12-07T06:09:35;0.20;;;0.20;;
64140;SDS011;50436;50.618;7.932;2022-12-07T06:12:22;0.20;;;0.20;;
64140;SDS011;50436;50.618;7.932;2022-12-07T06:15:19;0.20;;;0.20;;
64140;SDS011;50436;50.618;7.932;2022-12-07T06:18:05;0.20;;;0.20;;
64140;SDS011;50436;50.618;7.932;2022-12-07T06:20:51;0.20;;;0.20;;
64140;SDS011;50436;50.618;7.932;2022-12-07T06:23:37;0.20;;;0.20;;
64140;SDS011;50436;50.618;7.932;2022-12-07T06:26:23;0.10;;;0.10;;
64140;SDS011;50436;50.618;7.932;2022-12-07T06:29:09;0.20;;;0.20;;
64140;SDS011;50436;50.618;7.932;2022-12-07T06:31:56;0.20;;;0.20;;
64140;SDS011;50436;50.618;7.932;2022-12-07T06:34:42;0.20;;;0.20;;
64140;SDS011;50436;50.618;7.932;2022-12-07T06:37:28;0.20;;;0.20;;
64140;SDS011;50436;50.618;7.932;2022-12-07T06:40:14;0.20;;;0.20;;
64140;SDS011;50436;50.618;7.932;2022-12-07T06:43:00;0.20;;;0.20;;
64140;SDS011;50436;50.618;7.932;2022-12-07T06:45:46;0.20;;;0.20;;
64140;SDS011;50436;50.618;7.932;2022-12-07T06:48:31;0.20;;;0.20;;
64140;SDS011;50436;50.618;7.932;2022-12-07T06:51:17;0.20;;;0.20;;
64140;SDS011;50436;50.618;7.932;2022-12-07T06:54:03;0.20;;;0.20;;
64140;SDS011;50436;50.618;7.932;2022-12-07T06:56:50;0.20;;;0.20;;
64140;SDS011;50436;50.618;7.932;2022-12-07T06:59:36;0.20;;;0.20;;
64140;SDS011;50436;50.618;7.932;2022-12-07T07:02:21;0.20;;;0.20;;
64140;SDS011;50436;50.618;7.932;2022-12-07T07:05:07;0.20;;;0.20;;
64140;SDS011;50436;50.618;7.932;2022-12-07T07:07:53;0.20;;;0.20;;
64140;SDS011;50436;50.618;7.932;2022-12-07T07:10:39;0.20;;;0.20;;
64140;SDS011;50436;50.618;7.932;2022-12-07T07:13:27;0.20;;;0.20;;
64140;SDS011;50436;50.618;7.932;2022-12-07T07:16:13;0.20;;;0.20;;
64140;SDS011;50436;50.618;7.932;2022-12-07T07:18:59;0.20;;;0.20;;
64140;SDS011;50436;50.618;7.932;2022-12-07T07:21:45;0.20;;;0.20;;
64140;SDS011;50436;50.618;7.932;2022-12-07T07:24:31;0.20;;;0.20;;
64140;SDS011;50436;50.618;7.932;2022-12-07T07:27:17;0.20;;;0.20;;
64140;SDS011;50436;50.618;7.932;2022-12-07T07:30:03;0.20;;;0.20;;
64140;SDS011;50436;50.618;7.932;2022-12-07T07:32:50;0.20;;;0.20;;
64140;SDS011;50436;50.618;7.932;2022-12-07T07:35:36;0.20;;;0.20;;
64140;SDS011;50436;50.618;7.932;2022-12-07T07:38:22;0.20;;;0.20;;
64140;SDS011;50436;50.618;7.932;2022-12-07T07:41:08;0.20;;;0.20;;
64140;SDS011;50436;50.618;7.932;2022-12-07T07:43:54;0.20;;;0.20;;
64140;SDS011;50436;50.618;7.932;2022-12-07T07:46:39;0.20;;;0.20;;
64140;SDS011;50436;50.618;7.932;2022-12-07T07:49:25;0.20;;;0.20;;
64140;SDS011;50436;50.618;7.932;2022-12-07T07:52:11;0.20;;;0.20;;
64140;SDS011;50436;50.618;7.932;2022-12-07T07:54:57;0.20;;;0.20;;
64140;SDS011;50436;50.618;7.932;2022-12-07T07:57:43;0.20;;;0.20;;
64140;SDS011;50436;50.618;7.932;2022-12-07T08:00:29;0.20;;;0.20;;
64140;SDS011;50436;50.618;7.932;2022-12-07T08:03:15;0.10;;;0.10;;
64140;SDS011;50436;50.618;7.932;2022-12-07T08:06:02;0.20;;;0.20;;
64140;SDS011;50436;50.618;7.932;2022-12-07T08:08:49;0.20;;;0.20;;
64140;SDS011;50436;50.618;7.932;2022-12-07T08:11:35;0.20;;;0.20;;
64140;SDS011;50436;50.618;7.932;2022-12-07T08:14:21;0.20;;;0.20;;
64140;SDS011;50436;50.618;7.932;2022-12-07T08:17:07;0.20;;;0.20;;
64140;SDS011;50436;50.618;7.932;2022-12-07T08:19:53;0.20;;;0.20;;
64140;SDS011;50436;50.618;7.932;2022-12-07T08:22:39;0.20;;;0.20;;
64140;SDS011;50436;50.618;7.932;2022-12-07T08:25:25;0.20;;;0.20;;
64140;SDS011;50436;50.618;7.932;2022-12-07T08:28:12;0.10;;;0.10;;
64140;SDS011;50436;50.618;7.932;2022-12-07T08:30:59;0.20;;;0.20;;
64140;SDS011;50436;50.618;7.932;2022-12-07T08:33:46;0.20;;;0.20;;
64140;SDS011;50436;50.618;7.932;2022-12-07T08:36:33;0.20;;;0.20;;
64140;SDS011;50436;50.618;7.932;2022-12-07T08:39:19;0.20;;;0.20;;
64140;SDS011;50436;50.618;7.932;2022-12-07T08:42:04;0.15;;;0.15;;
64140;SDS011;50436;50.618;7.932;2022-12-07T08:44:50;0.20;;;0.20;;
64140;SDS011;50436;50.618;7.932;2022-12-07T08:47:37;0.20;;;0.20;;
64140;SDS011;50436;50.618;7.932;2022-12-07T08:50:40;0.20;;;0.20;;
64140;SDS011;50436;50.618;7.932;2022-12-07T08:53:26;0.10;;;0.10;;
64140;SDS011;50436;50.618;7.932;2022-12-07T08:56:16;0.13;;;0.13;;
64140;SDS011;50436;50.618;7.932;2022-12-07T08:59:02;0.20;;;0.20;;
64140;SDS011;50436;50.618;7.932;2022-12-07T09:01:49;0.20;;;0.20;;
64140;SDS011;50436;50.618;7.932;2022-12-07T09:04:35;0.20;;;0.20;;
64140;SDS011;50436;50.618;7.932;2022-12-07T09:07:21;0.20;;;0.20;;
64140;SDS011;50436;50.618;7.932;2022-12-07T09:10:07;0.20;;;0.20;;
64140;SDS011;50436;50.618;7.932;2022-12-07T09:12:53;0.22;;;0.22;;
64140;SDS011;50436;50.618;7.932;2022-12-07T09:15:39;0.20;;;0.20;;
64140;SDS011;50436;50.618;7.932;2022-12-07T09:18:25;0.20;;;0.20;;
64140;SDS011;50436;50.618;7.932;2022-12-07T09:21:11;0.20;;;0.20;;
64140;SDS011;50436;50.618;7.932;2022-12-07T09:23:57;0.20;;;0.20;;
64140;SDS011;50436;50.618;7.932;2022-12-07T09:26:43;0.20;;;0.20;;
64140;SDS011;50436;50.618;7.932;2022-12-07T09:29:29;0.20;;;0.20;;
64140;SDS011;50436;50.618;7.932;2022-12-07T09:32:17;0.10;;;0.10;;
64140;SDS011;50436;50.618;7.932;2022-12-07T09:35:03;0.20;;;0.20;;
64140;SDS011;50436;50.618;7.932;2022-12-07T09:37:49;0.20;;;0.20;;
64140;SDS011;50436;50.618;7.932;2022-12-07T09:40:35;0.13;;;0.13;;
64140;SDS011;50436;50.618;7.932;2022-12-07T09:43:22;0.20;;;0.20;;
64140;SDS011;50436;50.618;7.932;2022-12-07T09:46:12;0.20;;;0.20;;
64140;SDS011;50436;50.618;7.932;2022-12-07T09:51:55;0.20;;;0.20;;
64140;SDS011;50436;50.618;7.932;2022-12-07T09:54:54;0.20;;;0.20;;
64140;SDS011;50436;50.618;7.932;2022-12-07T09:57:40;0.20;;;0.20;;
64140;SDS011;50436;50.618;7.932;2022-12-07T10:00:27;0.20;;;0.20;;
64140;SDS011;50436;50.618;7.932;2022-12-07T10:03:13;0.20;;;0.20;;
64140;SDS011;50436;50.618;7.932;2022-12-07T10:05:59;0.20;;;0.20;;
64140;SDS011;50436;50.618;7.932;2022-12-07T10:08:45;0.20;;;0.20;;
64140;SDS011;50436;50.618;7.932;2022-12-07T10:11:31;0.20;;;0.20;;
64140;SDS011;50436;50.618;7.932;2022-12-07T10:14:17;0.13;;;0.13;;
64140;SDS011;50436;50.618;7.932;2022-12-07T10:17:22;0.17;;;0.17;;
64140;SDS011;50436;50.618;7.932;2022-12-07T10:20:24;0.20;;;0.20;;
64140;SDS011;50436;50.618;7.932;2022-12-07T10:23:15;0.20;;;0.20;;
64140;SDS011;50436;50.618;7.932;2022-12-07T10:26:46;0.10;;;0.10;;
64140;SDS011;50436;50.618;7.932;2022-12-07T10:32:26;0.10;;;0.10;;
64140;SDS011;50436;50.618;7.932;2022-12-07T10:35:24;0.20;;;0.20;;
64140;SDS011;50436;50.618;7.932;2022-12-07T10:38:15;0.20;;;0.20;;
64140;SDS011;50436;50.618;7.932;2022-12-07T10:41:06;0.20;;;0.20;;
64140;SDS011;50436;50.618;7.932;2022-12-07T10:43:54;0.20;;;0.20;;
64140;SDS011;50436;50.618;7.932;2022-12-07T10:46:53;0.20;;;0.20;;
64140;SDS011;50436;50.618;7.932;2022-12-07T11:01:30;0.22;;;0.20;;
64140;SDS011;50436;50.618;7.932;2022-12-07T11:04:35;0.20;;;0.20;;
64140;SDS011;50436;50.618;7.932;2022-12-07T11:07:50;0.20;;;0.20;;
64140;SDS011;50436;50.618;7.932;2022-12-07T11:11:21;0.20;;;0.20;;
64140;SDS011;50436;50.618;7.932;2022-12-07T11:16:56;0.20;;;0.20;;
64140;SDS011;50436;50.618;7.932;2022-12-07T11:26:05;0.10;;;0.10;;
64140;SDS011;50436;50.618;7.932;2022-12-07T11:38:51;0.20;;;0.20;;
64140;SDS011;50436;50.618;7.932;2022-12-07T11:41:40;0.30;;;0.30;;
64140;SDS011;50436;50.618;7.932;2022-12-07T11:44:33;0.20;;;0.20;;
64140;SDS011;50436;50.618;7.932;2022-12-07T11:47:36;0.20;;;0.20;;
64140;SDS011;50436;50.618;7.932;2022-12-07T11:53:24;0.10;;;0.10;;
64140;SDS011;50436;50.618;7.932;2022-12-07T11:56:13;0.20;;;0.20;;
64140;SDS011;50436;50.618;7.932;2022-12-07T11:59:25;0.20;;;0.20;;
64140;SDS011;50436;50.618;7.932;2022-12-07T12:02:14;0.20;;;0.20;;
64140;SDS011;50436;50.618;7.932;2022-12-07T12:23:45;0.20;;;0.20;;
64140;SDS011;50436;50.618;7.932;2022-12-07T12:26:50;0.20;;;0.20;;
64140;SDS011;50436;50.618;7.932;2022-12-07T12:29:40;0.20;;;0.20;;
64140;SDS011;50436;50.618;7.932;2022-12-07T12:32:38;0.20;;;0.20;;
64140;SDS011;50436;50.618;7.932;2022-12-07T12:35:30;0.20;;;0.20;;
64140;SDS011;50436;50.618;7.932;2022-12-07T12:38:21;0.20;;;0.20;;
64140;SDS011;50436;50.618;7.932;2022-12-07T12:41:50;0.30;;;0.30;;
64140;SDS011;50436;50.618;7.932;2022-12-07T12:50:36;0.20;;;0.20;;
64140;SDS011;50436;50.618;7.932;2022-12-07T12:53:23;0.20;;;0.20;;
64140;SDS011;50436;50.618;7.932;2022-12-07T12:56:14;0.20;;;0.20;;
64140;SDS011;50436;50.618;7.932;2022-12-07T12:59:22;0.20;;;0.20;;
64140;SDS011;50436;50.618;7.932;2022-12-07T13:07:59;0.20;;;0.20;;
64140;SDS011;50436;50.618;7.932;2022-12-07T13:10:47;0.20;;;0.20;;
64140;SDS011;50436;50.618;7.932;2022-12-07T13:13:34;0.13;;;0.13;;
64140;SDS011;50436;50.618;7.932;2022-12-07T13:28:19;0.20;;;0.20;;
64140;SDS011;50436;50.618;7.932;2022-12-07T13:31:12;0.20;;;0.20;;
64140;SDS011;50436;50.618;7.932;2022-12-07T13:34:02;0.20;;;0.20;;
64140;SDS011;50436;50.618;7.932;2022-12-07T13:36:49;0.13;;;0.13;;
64140;SDS011;50436;50.618;7.932;2022-12-07T13:39:44;0.20;;;0.20;;
64140;SDS011;50436;50.618;7.932;2022-12-07T13:42:32;0.20;;;0.20;;
64140;SDS011;50436;50.618;7.932;2022-12-07T13:48:35;0.10;;;0.10;;
64140;SDS011;50436;50.618;7.932;2022-12-07T13:51:28;0.20;;;0.20;;
64140;SDS011;50436;50.618;7.932;2022-12-07T13:54:21;0.20;;;0.20;;
64140;SDS011;50436;50.618;7.932;2022-12-07T13:57:07;0.20;;;0.20;;
64140;SDS011;50436;50.618;7.932;2022-12-07T13:59:53;0.10;;;0.10;;
64140;SDS011;50436;50.618;7.932;2022-12-07T14:02:54;0.20;;;0.20;;
64140;SDS011;50436;50.618;7.932;2022-12-07T14:05:41;0.20;;;0.20;;
64140;SDS011;50436;50.618;7.932;2022-12-07T14:08:29;0.10;;;0.10;;
64140;SDS011;50436;50.618;7.932;2022-12-07T14:11:18;0.20;;;0.20;;
64140;SDS011;50436;50.618;7.932;2022-12-07T14:14:06;0.20;;;0.20;;
64140;SDS011;50436;50.618;7.932;2022-12-07T14:19:59;0.20;;;0.20;;
64140;SDS011;50436;50.618;7.932;2022-12-07T14:22:53;0.20;;;0.20;;
64140;SDS011;50436;50.618;7.932;2022-12-07T14:25:45;0.20;;;0.20;;
64140;SDS011;50436;50.618;7.932;2022-12-07T14:28:33;0.20;;;0.20;;
64140;SDS011;50436;50.618;7.932;2022-12-07T14:31:23;0.20;;;0.20;;
64140;SDS011;50436;50.618;7.932;2022-12-07T14:34:13;0.17;;;0.17;;
64140;SDS011;50436;50.618;7.932;2022-12-07T14:36:59;0.20;;;0.20;;
64140;SDS011;50436;50.618;7.932;2022-12-07T14:39:45;0.20;;;0.20;;
64140;SDS011;50436;50.618;7.932;2022-12-07T14:42:30;0.20;;;0.20;;
64140;SDS011;50436;50.618;7.932;2022-12-07T14:45:18;0.20;;;0.20;;
64140;SDS011;50436;50.618;7.932;2022-12-07T14:48:13;0.20;;;0.20;;
64140;SDS011;50436;50.618;7.932;2022-12-07T14:51:02;0.20;;;0.20;;
64140;SDS011;50436;50.618;7.932;2022-12-07T14:53:50;0.20;;;0.20;;
64140;SDS011;50436;50.618;7.932;2022-12-07T14:56:37;0.20;;;0.20;;
64140;SDS011;50436;50.618;7.932;2022-12-07T14:59:23;0.20;;;0.20;;
64140;SDS011;50436;50.618;7.932;2022-12-07T15:02:09;0.20;;;0.20;;
64140;SDS011;50436;50.618;7.932;2022-12-07T15:05:00;0.20;;;0.20;;
64140;SDS011;50436;50.618;7.932;2022-12-07T15:07:46;0.20;;;0.20;;
64140;SDS011;50436;50.618;7.932;2022-12-07T15:10:33;0.20;;;0.20;;
64140;SDS011;50436;50.618;7.932;2022-12-07T15:13:19;0.20;;;0.20;;
64140;SDS011;50436;50.618;7.932;2022-12-07T15:16:24;0.20;;;0.20;;
64140;SDS011;50436;50.618;7.932;2022-12-07T15:19:16;0.20;;;0.20;;
64140;SDS011;50436;50.618;7.932;2022-12-07T15:22:04;0.20;;;0.20;;
64140;SDS011;50436;50.618;7.932;2022-12-07T15:24:50;0.20;;;0.20;;
64140;SDS011;50436;50.618;7.932;2022-12-07T15:27:37;0.20;;;0.20;;
64140;SDS011;50436;50.618;7.932;2022-12-07T15:30:22;0.20;;;0.20;;
64140;SDS011;50436;50.618;7.932;2022-12-07T15:33:08;0.20;;;0.20;;
64140;SDS011;50436;50.618;7.932;2022-12-07T15:35:55;0.20;;;0.20;;
64140;SDS011;50436;50.618;7.932;2022-12-07T15:38:41;0.20;;;0.20;;
64140;SDS011;50436;50.618;7.932;2022-12-07T15:41:27;0.10;;;0.10;;
64140;SDS011;50436;50.618;7.932;2022-12-07T15:44:13;0.20;;;0.20;;
64140;SDS011;50436;50.618;7.932;2022-12-07T15:47:18;0.20;;;0.20;;
64140;SDS011;50436;50.618;7.932;2022-12-07T15:50:05;0.20;;;0.20;;
64140;SDS011;50436;50.618;7.932;2022-12-07T15:52:54;0.20;;;0.20;;
64140;SDS011;50436;50.618;7.932;2022-12-07T15:55:40;0.20;;;0.20;;
64140;SDS011;50436;50.618;7.932;2022-12-07T15:58:26;0.20;;;0.20;;
64140;SDS011;50436;50.618;7.932;2022-12-07T16:01:13;0.20;;;0.20;;
64140;SDS011;50436;50.618;7.932;2022-12-07T16:04:01;0.30;;;0.30;;
64140;SDS011;50436;50.618;7.932;2022-12-07T16:06:46;0.15;;;0.15;;
64140;SDS011;50436;50.618;7.932;2022-12-07T16:09:32;0.20;;;0.20;;
64140;SDS011;50436;50.618;7.932;2022-12-07T16:12:18;0.20;;;0.20;;
64140;SDS011;50436;50.618;7.932;2022-12-07T16:15:04;0.10;;;0.10;;
64140;SDS011;50436;50.618;7.932;2022-12-07T16:17:51;0.20;;;0.20;;
64140;SDS011;50436;50.618;7.932;2022-12-07T16:20:37;0.20;;;0.20;;
64140;SDS011;50436;50.618;7.932;2022-12-07T16:23:23;0.20;;;0.20;;
64140;SDS011;50436;50.618;7.932;2022-12-07T16:26:13;0.20;;;0.20;;
64140;SDS011;50436;50.618;7.932;2022-12-07T16:31:47;0.13;;;0.13;;
64140;SDS011;50436;50.618;7.932;2022-12-07T16:34:33;0.20;;;0.20;;
64140;SDS011;50436;50.618;7.932;2022-12-07T16:37:19;0.22;;;0.22;;
64140;SDS011;50436;50.618;7.932;2022-12-07T16:40:05;0.20;;;0.20;;
64140;SDS011;50436;50.618;7.932;2022-12-07T16:42:53;0.20;;;0.20;;
64140;SDS011;50436;50.618;7.932;2022-12-07T16:45:39;0.10;;;0.10;;
64140;SDS011;50436;50.618;7.932;2022-12-07T16:48:25;0.20;;;0.20;;
64140;SDS011;50436;50.618;7.932;2022-12-07T16:51:11;0.20;;;0.20;;
64140;SDS011;50436;50.618;7.932;2022-12-07T16:53:59;0.20;;;0.20;;
64140;SDS011;50436;50.618;7.932;2022-12-07T16:56:45;0.20;;;0.20;;
64140;SDS011;50436;50.618;7.932;2022-12-07T16:59:31;0.20;;;0.20;;
64140;SDS011;50436;50.618;7.932;2022-12-07T17:02:17;0.20;;;0.20;;
64140;SDS011;50436;50.618;7.932;2022-12-07T17:05:04;0.20;;;0.20;;
64140;SDS011;50436;50.618;7.932;2022-12-07T17:07:50;0.10;;;0.10;;
64140;SDS011;50436;50.618;7.932;2022-12-07T17:10:37;0.20;;;0.20;;
64140;SDS011;50436;50.618;7.932;2022-12-07T17:13:24;0.10;;;0.10;;
64140;SDS011;50436;50.618;7.932;2022-12-07T17:16:28;0.17;;;0.17;;
64140;SDS011;50436;50.618;7.932;2022-12-07T17:19:15;0.20;;;0.20;;
64140;SDS011;50436;50.618;7.932;2022-12-07T17:22:02;0.20;;;0.20;;
64140;SDS011;50436;50.618;7.932;2022-12-07T17:24:48;0.20;;;0.20;;
64140;SDS011;50436;50.618;7.932;2022-12-07T17:27:34;0.20;;;0.20;;
64140;SDS011;50436;50.618;7.932;2022-12-07T17:30:20;0.20;;;0.20;;
64140;SDS011;50436;50.618;7.932;2022-12-07T17:33:06;0.20;;;0.20;;
64140;SDS011;50436;50.618;7.932;2022-12-07T17:35:51;0.20;;;0.20;;
64140;SDS011;50436;50.618;7.932;2022-12-07T17:38:37;0.20;;;0.20;;
64140;SDS011;50436;50.618;7.932;2022-12-07T17:41:25;0.20;;;0.20;;
64140;SDS011;50436;50.618;7.932;2022-12-07T17:44:33;0.20;;;0.20;;
64140;SDS011;50436;50.618;7.932;2022-12-07T17:47:19;0.20;;;0.20;;
64140;SDS011;50436;50.618;7.932;2022-12-07T17:50:06;0.10;;;0.10;;
64140;SDS011;50436;50.618;7.932;2022-12-07T17:52:52;0.10;;;0.10;;
64140;SDS011;50436;50.618;7.932;2022-12-07T17:55:56;0.20;;;0.20;;
64140;SDS011;50436;50.618;7.932;2022-12-07T17:58:42;0.20;;;0.20;;
64140;SDS011;50436;50.618;7.932;2022-12-07T18:01:28;0.20;;;0.20;;
64140;SDS011;50436;50.618;7.932;2022-12-07T18:04:14;0.20;;;0.20;;
64140;SDS011;50436;50.618;7.932;2022-12-07T18:07:00;0.20;;;0.20;;
64140;SDS011;50436;50.618;7.932;2022-12-07T18:09:45;0.20;;;0.20;;
64140;SDS011;50436;50.618;7.932;2022-12-07T18:12:34;0.20;;;0.20;;
64140;SDS011;50436;50.618;7.932;2022-12-07T18:15:20;0.20;;;0.20;;
64140;SDS011;50436;50.618;7.932;2022-12-07T18:18:06;0.20;;;0.20;;
64140;SDS011;50436;50.618;7.932;2022-12-07T18:20:52;0.20;;;0.20;;
64140;SDS011;50436;50.618;7.932;2022-12-07T18:23:38;0.20;;;0.20;;
64140;SDS011;50436;50.618;7.932;2022-12-07T18:26:24;0.20;;;0.20;;
64140;SDS011;50436;50.618;7.932;2022-12-07T18:29:12;0.20;;;0.20;;
64140;SDS011;50436;50.618;7.932;2022-12-07T18:31:59;0.13;;;0.13;;
64140;SDS011;50436;50.618;7.932;2022-12-07T18:34:45;0.20;;;0.20;;
64140;SDS011;50436;50.618;7.932;2022-12-07T18:37:31;0.20;;;0.20;;
64140;SDS011;50436;50.618;7.932;2022-12-07T18:40:17;0.20;;;0.20;;
64140;SDS011;50436;50.618;7.932;2022-12-07T18:43:04;0.20;;;0.20;;
64140;SDS011;50436;50.618;7.932;2022-12-07T18:45:50;0.17;;;0.17;;
64140;SDS011;50436;50.618;7.932;2022-12-07T18:48:36;0.20;;;0.20;;
64140;SDS011;50436;50.618;7.932;2022-12-07T18:51:22;0.20;;;0.20;;
64140;SDS011;50436;50.618;7.932;2022-12-07T18:54:08;0.20;;;0.20;;